Pagina principale
METAR-TAF:

METAR-TAF

Aeroporti :

Batajnica, Serbia

latitudine: 44-56-07N, longitudine: 020-15-27E, altezza: 86 m

Osservazione

Il bollettino è stato emesso 29 minuti fa, alle 20:00 UTC
Vento calmo
Temperature 17°C
Umidità 77%
Pressione 1016 hPa
Visibilità 10 km o più
nessuna nube inferiore a 1500 m e nessun cumulonembo

METAR: LYBT 162000Z 00000KT CAVOK 17/13 Q1016 NOSIG

Ora: 22:29 (20:29 UTC)

Previsione

Il bollettino è stato emesso 3 ore e 29 minuti fa, alle 17:00 UTC
Previsione valida dal 16 alle 18 UTC al 17 alle 18 UTC
Vento 5 kt da ovest/sud-ovest
Visibilità 10 km o più
nessuna nube inferiore a 1500 m e nessun cumulonembo

TAF: LYBT 161700Z 1618/1718 25005KT CAVOK TX30/1713Z TN14/1704Z

Osservazioni e previsioni meteorologiche di più di 4000 aeroporti (messaggi METAR e TAF).

Le stazioni disponibili sono rappresentate dai dischi gialli e rossi sulla carta.

Puntare il mouse per vedere il nome della stazione.

Clicca sopra per visualizzare le osservazioni e previsioni meteorologiche.

Per cambiare la mappa : fare clic sui pulsanti verdi con una croce nera per ingrandire, il pulsante verde con un trattino per diminuire, o sulla freccia verde per le mappe adiacenti.


METAR-TAF: